sensor_id;sensor_type;location;lat;lon;timestamp;temperature;humidity
16327;DHT22;34812;49.846;9.610;2023-05-10T00:00:37;14.20;99.90
16327;DHT22;34812;49.846;9.610;2023-05-10T00:01:38;14.20;99.90
16327;DHT22;34812;49.846;9.610;2023-05-10T00:02:40;14.20;99.90
16327;DHT22;34812;49.846;9.610;2023-05-10T00:03:41;14.20;99.90
16327;DHT22;34812;49.846;9.610;2023-05-10T00:04:43;14.20;99.90
16327;DHT22;34812;49.846;9.610;2023-05-10T00:05:44;14.20;99.90
16327;DHT22;34812;49.846;9.610;2023-05-10T00:06:46;14.10;99.90
16327;DHT22;34812;49.846;9.610;2023-05-10T00:07:46;14.10;99.90
16327;DHT22;34812;49.846;9.610;2023-05-10T00:08:48;14.10;99.90
16327;DHT22;34812;49.846;9.610;2023-05-10T00:09:49;14.20;99.90
16327;DHT22;34812;49.846;9.610;2023-05-10T00:10:50;14.10;99.90
16327;DHT22;34812;49.846;9.610;2023-05-10T00:11:51;14.10;99.90
16327;DHT22;34812;49.846;9.610;2023-05-10T00:12:53;14.10;99.90
16327;DHT22;34812;49.846;9.610;2023-05-10T00:13:54;14.10;99.90
16327;DHT22;34812;49.846;9.610;2023-05-10T00:14:57;14.10;99.90
16327;DHT22;34812;49.846;9.610;2023-05-10T00:15:57;14.10;99.90
16327;DHT22;34812;49.846;9.610;2023-05-10T00:16:59;14.10;99.90
16327;DHT22;34812;49.846;9.610;2023-05-10T00:18:00;14.10;99.90
16327;DHT22;34812;49.846;9.610;2023-05-10T00:19:02;14.10;99.90
16327;DHT22;34812;49.846;9.610;2023-05-10T00:20:04;14.10;99.90
16327;DHT22;34812;49.846;9.610;2023-05-10T00:21:06;14.10;99.90
16327;DHT22;34812;49.846;9.610;2023-05-10T00:22:07;14.10;99.90
16327;DHT22;34812;49.846;9.610;2023-05-10T00:23:08;14.10;99.90
16327;DHT22;34812;49.846;9.610;2023-05-10T00:24:09;14.10;99.90
16327;DHT22;34812;49.846;9.610;2023-05-10T00:25:11;14.10;99.90
16327;DHT22;34812;49.846;9.610;2023-05-10T00:26:12;14.10;99.90
16327;DHT22;34812;49.846;9.610;2023-05-10T00:27:16;14.10;99.90
16327;DHT22;34812;49.846;9.610;2023-05-10T00:28:17;14.10;99.90
16327;DHT22;34812;49.846;9.610;2023-05-10T00:29:19;14.10;99.90
16327;DHT22;34812;49.846;9.610;2023-05-10T00:30:21;14.10;99.90
16327;DHT22;34812;49.846;9.610;2023-05-10T00:31:23;14.10;99.90
16327;DHT22;34812;49.846;9.610;2023-05-10T00:32:24;14.10;99.90
16327;DHT22;34812;49.846;9.610;2023-05-10T00:33:26;14.10;99.90
16327;DHT22;34812;49.846;9.610;2023-05-10T00:34:27;14.10;99.90
16327;DHT22;34812;49.846;9.610;2023-05-10T00:35:29;14.10;99.90
16327;DHT22;34812;49.846;9.610;2023-05-10T00:36:29;14.10;99.90
16327;DHT22;34812;49.846;9.610;2023-05-10T00:37:31;14.10;99.90
16327;DHT22;34812;49.846;9.610;2023-05-10T00:38:32;14.10;99.90
16327;DHT22;34812;49.846;9.610;2023-05-10T00:39:34;14.10;99.90
16327;DHT22;34812;49.846;9.610;2023-05-10T00:40:35;14.10;99.90
16327;DHT22;34812;49.846;9.610;2023-05-10T00:41:39;14.10;99.90
16327;DHT22;34812;49.846;9.610;2023-05-10T00:42:41;14.10;99.90
16327;DHT22;34812;49.846;9.610;2023-05-10T00:43:43;14.10;99.90
16327;DHT22;34812;49.846;9.610;2023-05-10T00:44:44;14.10;99.90
16327;DHT22;34812;49.846;9.610;2023-05-10T00:45:48;14.10;99.90
16327;DHT22;34812;49.846;9.610;2023-05-10T00:46:50;14.10;99.90
16327;DHT22;34812;49.846;9.610;2023-05-10T00:47:52;14.10;99.90
16327;DHT22;34812;49.846;9.610;2023-05-10T00:48:55;14.10;99.90
16327;DHT22;34812;49.846;9.610;2023-05-10T00:49:57;14.10;99.90
16327;DHT22;34812;49.846;9.610;2023-05-10T00:51:00;14.10;99.90
16327;DHT22;34812;49.846;9.610;2023-05-10T00:52:02;14.10;99.90
16327;DHT22;34812;49.846;9.610;2023-05-10T00:53:03;14.10;99.90
16327;DHT22;34812;49.846;9.610;2023-05-10T00:54:05;14.10;99.90
16327;DHT22;34812;49.846;9.610;2023-05-10T00:55:08;14.10;99.90
16327;DHT22;34812;49.846;9.610;2023-05-10T00:56:11;14.10;99.90
16327;DHT22;34812;49.846;9.610;2023-05-10T00:57:12;14.10;99.90
16327;DHT22;34812;49.846;9.610;2023-05-10T00:58:14;14.10;99.90
16327;DHT22;34812;49.846;9.610;2023-05-10T00:59:15;14.10;99.90
16327;DHT22;34812;49.846;9.610;2023-05-10T01:00:18;14.10;99.90
16327;DHT22;34812;49.846;9.610;2023-05-10T01:01:21;14.10;99.90
16327;DHT22;34812;49.846;9.610;2023-05-10T01:02:22;14.10;99.90
16327;DHT22;34812;49.846;9.610;2023-05-10T01:03:25;14.10;99.90
16327;DHT22;34812;49.846;9.610;2023-05-10T01:04:26;14.10;99.90
16327;DHT22;34812;49.846;9.610;2023-05-10T01:05:28;14.10;99.90
16327;DHT22;34812;49.846;9.610;2023-05-10T01:06:31;14.00;99.90
16327;DHT22;34812;49.846;9.610;2023-05-10T01:07:32;14.00;99.90
16327;DHT22;34812;49.846;9.610;2023-05-10T01:08:34;14.00;99.90
16327;DHT22;34812;49.846;9.610;2023-05-10T01:09:35;14.00;99.90
16327;DHT22;34812;49.846;9.610;2023-05-10T01:10:37;13.90;99.90
16327;DHT22;34812;49.846;9.610;2023-05-10T01:11:38;13.90;99.90
16327;DHT22;34812;49.846;9.610;2023-05-10T01:12:43;13.90;99.90
16327;DHT22;34812;49.846;9.610;2023-05-10T01:13:50;13.80;99.90
16327;DHT22;34812;49.846;9.610;2023-05-10T01:14:54;13.80;99.90
16327;DHT22;34812;49.846;9.610;2023-05-10T01:15:55;13.80;99.90
16327;DHT22;34812;49.846;9.610;2023-05-10T01:16:59;13.80;99.90
16327;DHT22;34812;49.846;9.610;2023-05-10T01:18:01;13.70;99.90
16327;DHT22;34812;49.846;9.610;2023-05-10T01:19:04;13.70;99.90
16327;DHT22;34812;49.846;9.610;2023-05-10T01:20:08;13.70;99.90
16327;DHT22;34812;49.846;9.610;2023-05-10T01:21:19;13.70;99.90
16327;DHT22;34812;49.846;9.610;2023-05-10T01:22:47;13.60;99.90
16327;DHT22;34812;49.846;9.610;2023-05-10T01:24:30;13.60;99.90
16327;DHT22;34812;49.846;9.610;2023-05-10T01:26:05;13.60;99.90
16327;DHT22;34812;49.846;9.610;2023-05-10T01:27:25;13.50;99.90
16327;DHT22;34812;49.846;9.610;2023-05-10T01:28:43;13.50;99.90
16327;DHT22;34812;49.846;9.610;2023-05-10T01:33:24;13.40;99.90
16327;DHT22;34812;49.846;9.610;2023-05-10T01:34:34;13.40;99.90
16327;DHT22;34812;49.846;9.610;2023-05-10T01:35:39;13.40;99.90
16327;DHT22;34812;49.846;9.610;2023-05-10T01:36:47;13.30;99.90
16327;DHT22;34812;49.846;9.610;2023-05-10T01:37:52;13.40;99.90
16327;DHT22;34812;49.846;9.610;2023-05-10T01:39:02;13.30;99.90
16327;DHT22;34812;49.846;9.610;2023-05-10T01:40:13;13.30;99.90
16327;DHT22;34812;49.846;9.610;2023-05-10T01:41:19;13.30;99.90
16327;DHT22;34812;49.846;9.610;2023-05-10T01:42:26;13.30;99.90
16327;DHT22;34812;49.846;9.610;2023-05-10T01:43:37;13.20;99.90
16327;DHT22;34812;49.846;9.610;2023-05-10T01:44:48;13.20;99.90
16327;DHT22;34812;49.846;9.610;2023-05-10T01:46:00;13.20;99.90
16327;DHT22;34812;49.846;9.610;2023-05-10T01:47:07;13.20;99.90
16327;DHT22;34812;49.846;9.610;2023-05-10T01:48:11;13.20;99.90
16327;DHT22;34812;49.846;9.610;2023-05-10T01:49:18;13.20;99.90
16327;DHT22;34812;49.846;9.610;2023-05-10T01:50:26;13.20;99.90
16327;DHT22;34812;49.846;9.610;2023-05-10T01:51:33;13.20;99.90
16327;DHT22;34812;49.846;9.610;2023-05-10T01:52:42;13.20;99.90
16327;DHT22;34812;49.846;9.610;2023-05-10T01:53:44;13.20;99.90
16327;DHT22;34812;49.846;9.610;2023-05-10T01:54:55;13.20;99.90
16327;DHT22;34812;49.846;9.610;2023-05-10T01:55:56;13.20;99.90
16327;DHT22;34812;49.846;9.610;2023-05-10T01:57:02;13.20;99.90
16327;DHT22;34812;49.846;9.610;2023-05-10T01:58:07;13.20;99.90
16327;DHT22;34812;49.846;9.610;2023-05-10T01:59:13;13.10;99.90
16327;DHT22;34812;49.846;9.610;2023-05-10T02:00:16;13.10;99.90
16327;DHT22;34812;49.846;9.610;2023-05-10T02:01:20;13.10;99.90
16327;DHT22;34812;49.846;9.610;2023-05-10T02:02:24;13.10;99.90
16327;DHT22;34812;49.846;9.610;2023-05-10T02:03:28;13.10;99.90
16327;DHT22;34812;49.846;9.610;2023-05-10T02:04:31;13.10;99.90
16327;DHT22;34812;49.846;9.610;2023-05-10T02:05:34;13.20;99.90
16327;DHT22;34812;49.846;9.610;2023-05-10T02:06:38;13.10;99.90
16327;DHT22;34812;49.846;9.610;2023-05-10T02:07:41;13.10;99.90
16327;DHT22;34812;49.846;9.610;2023-05-10T02:08:43;13.10;99.90
16327;DHT22;34812;49.846;9.610;2023-05-10T02:09:47;13.10;99.90
16327;DHT22;34812;49.846;9.610;2023-05-10T02:10:52;13.10;99.90
16327;DHT22;34812;49.846;9.610;2023-05-10T02:11:54;13.10;99.90
16327;DHT22;34812;49.846;9.610;2023-05-10T02:12:58;13.20;99.90
16327;DHT22;34812;49.846;9.610;2023-05-10T02:14:01;13.20;99.90
16327;DHT22;34812;49.846;9.610;2023-05-10T02:15:05;13.10;99.90
16327;DHT22;34812;49.846;9.610;2023-05-10T02:16:08;13.10;99.90
16327;DHT22;34812;49.846;9.610;2023-05-10T02:17:09;13.10;99.90
16327;DHT22;34812;49.846;9.610;2023-05-10T02:18:13;13.10;99.90
16327;DHT22;34812;49.846;9.610;2023-05-10T02:19:15;13.10;99.90
16327;DHT22;34812;49.846;9.610;2023-05-10T02:20:19;13.10;99.90
16327;DHT22;34812;49.846;9.610;2023-05-10T02:21:21;13.10;99.90
16327;DHT22;34812;49.846;9.610;2023-05-10T02:22:24;13.00;99.90
16327;DHT22;34812;49.846;9.610;2023-05-10T02:23:27;13.00;99.90
16327;DHT22;34812;49.846;9.610;2023-05-10T02:24:31;13.00;99.90
16327;DHT22;34812;49.846;9.610;2023-05-10T02:25:34;13.00;99.90
16327;DHT22;34812;49.846;9.610;2023-05-10T02:26:38;13.10;99.90
16327;DHT22;34812;49.846;9.610;2023-05-10T02:27:41;13.00;99.90
16327;DHT22;34812;49.846;9.610;2023-05-10T02:28:44;13.00;99.90
16327;DHT22;34812;49.846;9.610;2023-05-10T02:29:46;13.00;99.90
16327;DHT22;34812;49.846;9.610;2023-05-10T02:30:50;13.00;99.90
16327;DHT22;34812;49.846;9.610;2023-05-10T02:31:53;12.90;99.90
16327;DHT22;34812;49.846;9.610;2023-05-10T02:32:56;12.90;99.90
16327;DHT22;34812;49.846;9.610;2023-05-10T02:34:00;12.90;99.90
16327;DHT22;34812;49.846;9.610;2023-05-10T02:35:04;12.90;99.90
16327;DHT22;34812;49.846;9.610;2023-05-10T02:36:07;12.90;99.90
16327;DHT22;34812;49.846;9.610;2023-05-10T02:37:11;12.80;99.90
16327;DHT22;34812;49.846;9.610;2023-05-10T02:38:13;12.80;99.90
16327;DHT22;34812;49.846;9.610;2023-05-10T02:39:16;12.80;99.90
16327;DHT22;34812;49.846;9.610;2023-05-10T02:40:19;12.80;99.90
16327;DHT22;34812;49.846;9.610;2023-05-10T02:41:24;12.80;99.90
16327;DHT22;34812;49.846;9.610;2023-05-10T02:42:27;12.80;99.90
16327;DHT22;34812;49.846;9.610;2023-05-10T02:43:32;12.70;99.90
16327;DHT22;34812;49.846;9.610;2023-05-10T02:44:34;12.70;99.90
16327;DHT22;34812;49.846;9.610;2023-05-10T02:45:38;12.70;99.90
16327;DHT22;34812;49.846;9.610;2023-05-10T02:46:40;12.70;99.90
16327;DHT22;34812;49.846;9.610;2023-05-10T02:47:42;12.70;99.90
16327;DHT22;34812;49.846;9.610;2023-05-10T02:48:44;12.70;99.90
16327;DHT22;34812;49.846;9.610;2023-05-10T02:49:48;12.70;99.90
16327;DHT22;34812;49.846;9.610;2023-05-10T02:50:50;12.70;99.90
16327;DHT22;34812;49.846;9.610;2023-05-10T02:51:59;12.70;99.90
16327;DHT22;34812;49.846;9.610;2023-05-10T02:53:01;12.60;99.90
16327;DHT22;34812;49.846;9.610;2023-05-10T02:54:11;12.70;99.90
16327;DHT22;34812;49.846;9.610;2023-05-10T02:55:15;12.70;99.90
16327;DHT22;34812;49.846;9.610;2023-05-10T02:56:23;12.70;99.90
16327;DHT22;34812;49.846;9.610;2023-05-10T02:57:28;12.70;99.90
16327;DHT22;34812;49.846;9.610;2023-05-10T02:58:33;12.70;99.90
16327;DHT22;34812;49.846;9.610;2023-05-10T02:59:34;12.70;99.90
16327;DHT22;34812;49.846;9.610;2023-05-10T03:00:35;12.70;99.90
16327;DHT22;34812;49.846;9.610;2023-05-10T03:01:37;12.70;99.90
16327;DHT22;34812;49.846;9.610;2023-05-10T03:02:38;12.70;99.90
16327;DHT22;34812;49.846;9.610;2023-05-10T03:03:39;12.70;99.90
16327;DHT22;34812;49.846;9.610;2023-05-10T03:04:41;12.70;99.90
16327;DHT22;34812;49.846;9.610;2023-05-10T03:05:43;12.70;99.90
16327;DHT22;34812;49.846;9.610;2023-05-10T03:06:45;12.70;99.90
16327;DHT22;34812;49.846;9.610;2023-05-10T03:07:47;12.70;99.90
16327;DHT22;34812;49.846;9.610;2023-05-10T03:08:49;12.70;99.90
16327;DHT22;34812;49.846;9.610;2023-05-10T03:09:50;12.70;99.90
16327;DHT22;34812;49.846;9.610;2023-05-10T03:11:01;12.70;99.90
16327;DHT22;34812;49.846;9.610;2023-05-10T03:12:11;12.70;99.90
16327;DHT22;34812;49.846;9.610;2023-05-10T03:13:21;12.70;99.90
16327;DHT22;34812;49.846;9.610;2023-05-10T03:14:34;12.70;99.90
16327;DHT22;34812;49.846;9.610;2023-05-10T03:15:46;12.70;99.90
16327;DHT22;34812;49.846;9.610;2023-05-10T03:16:57;12.70;99.90
16327;DHT22;34812;49.846;9.610;2023-05-10T03:18:07;12.70;99.90
16327;DHT22;34812;49.846;9.610;2023-05-10T03:19:15;12.70;99.90
16327;DHT22;34812;49.846;9.610;2023-05-10T03:20:22;12.70;99.90
16327;DHT22;34812;49.846;9.610;2023-05-10T03:21:28;12.70;99.90
16327;DHT22;34812;49.846;9.610;2023-05-10T03:22:37;12.70;99.90
16327;DHT22;34812;49.846;9.610;2023-05-10T03:23:41;12.70;99.90
16327;DHT22;34812;49.846;9.610;2023-05-10T03:24:45;12.70;99.90
16327;DHT22;34812;49.846;9.610;2023-05-10T03:25:48;12.70;99.90
16327;DHT22;34812;49.846;9.610;2023-05-10T03:26:54;12.70;99.90
16327;DHT22;34812;49.846;9.610;2023-05-10T03:27:57;12.70;99.90
16327;DHT22;34812;49.846;9.610;2023-05-10T03:29:00;12.70;99.90
16327;DHT22;34812;49.846;9.610;2023-05-10T03:30:02;12.70;99.90
16327;DHT22;34812;49.846;9.610;2023-05-10T03:31:07;12.70;99.90
16327;DHT22;34812;49.846;9.610;2023-05-10T03:32:08;12.70;99.90
16327;DHT22;34812;49.846;9.610;2023-05-10T03:33:10;12.70;99.90
16327;DHT22;34812;49.846;9.610;2023-05-10T03:34:14;12.70;99.90
16327;DHT22;34812;49.846;9.610;2023-05-10T03:35:16;12.70;99.90
16327;DHT22;34812;49.846;9.610;2023-05-10T03:36:18;12.70;99.90
16327;DHT22;34812;49.846;9.610;2023-05-10T03:37:22;12.70;99.90
16327;DHT22;34812;49.846;9.610;2023-05-10T03:38:23;12.70;99.90
16327;DHT22;34812;49.846;9.610;2023-05-10T03:39:24;12.70;99.90
16327;DHT22;34812;49.846;9.610;2023-05-10T03:40:29;12.70;99.90
16327;DHT22;34812;49.846;9.610;2023-05-10T03:41:32;12.70;99.90
16327;DHT22;34812;49.846;9.610;2023-05-10T03:42:33;12.70;99.90
16327;DHT22;34812;49.846;9.610;2023-05-10T03:43:35;12.70;99.90
16327;DHT22;34812;49.846;9.610;2023-05-10T03:44:36;12.70;99.90
16327;DHT22;34812;49.846;9.610;2023-05-10T03:45:37;12.70;99.90
16327;DHT22;34812;49.846;9.610;2023-05-10T03:46:38;12.70;99.90
16327;DHT22;34812;49.846;9.610;2023-05-10T03:47:40;12.70;99.90
16327;DHT22;34812;49.846;9.610;2023-05-10T03:48:41;12.70;99.90
16327;DHT22;34812;49.846;9.610;2023-05-10T03:49:42;12.70;99.90
16327;DHT22;34812;49.846;9.610;2023-05-10T03:50:43;12.70;99.90
16327;DHT22;34812;49.846;9.610;2023-05-10T03:51:46;12.70;99.90
16327;DHT22;34812;49.846;9.610;2023-05-10T03:52:48;12.70;99.90
16327;DHT22;34812;49.846;9.610;2023-05-10T03:53:50;12.70;99.90
16327;DHT22;34812;49.846;9.610;2023-05-10T03:54:50;12.70;99.90
16327;DHT22;34812;49.846;9.610;2023-05-10T03:55:52;12.70;99.90
16327;DHT22;34812;49.846;9.610;2023-05-10T03:56:53;12.70;99.90
16327;DHT22;34812;49.846;9.610;2023-05-10T03:57:56;12.70;99.90
16327;DHT22;34812;49.846;9.610;2023-05-10T03:58:57;12.70;99.90
16327;DHT22;34812;49.846;9.610;2023-05-10T03:59:59;12.70;99.90
16327;DHT22;34812;49.846;9.610;2023-05-10T04:01:00;12.70;99.90
16327;DHT22;34812;49.846;9.610;2023-05-10T04:02:01;12.70;99.90
16327;DHT22;34812;49.846;9.610;2023-05-10T04:03:04;12.70;99.90
16327;DHT22;34812;49.846;9.610;2023-05-10T04:04:05;12.70;99.90
16327;DHT22;34812;49.846;9.610;2023-05-10T04:05:07;12.70;99.90
16327;DHT22;34812;49.846;9.610;2023-05-10T04:06:09;12.70;99.90
16327;DHT22;34812;49.846;9.610;2023-05-10T04:07:12;12.70;99.90
16327;DHT22;34812;49.846;9.610;2023-05-10T04:08:15;12.70;99.90
16327;DHT22;34812;49.846;9.610;2023-05-10T04:09:16;12.70;99.90
16327;DHT22;34812;49.846;9.610;2023-05-10T04:10:18;12.70;99.90
16327;DHT22;34812;49.846;9.610;2023-05-10T04:11:19;12.70;99.90
16327;DHT22;34812;49.846;9.610;2023-05-10T04:12:22;12.70;99.90
16327;DHT22;34812;49.846;9.610;2023-05-10T04:13:23;12.70;99.90
16327;DHT22;34812;49.846;9.610;2023-05-10T04:14:24;12.70;99.90
16327;DHT22;34812;49.846;9.610;2023-05-10T04:15:25;12.70;99.90
16327;DHT22;34812;49.846;9.610;2023-05-10T04:16:27;12.70;99.90
16327;DHT22;34812;49.846;9.610;2023-05-10T04:17:27;12.80;99.90
16327;DHT22;34812;49.846;9.610;2023-05-10T04:18:29;12.80;99.90
16327;DHT22;34812;49.846;9.610;2023-05-10T04:19:30;12.80;99.90
16327;DHT22;34812;49.846;9.610;2023-05-10T04:20:32;12.80;99.90
16327;DHT22;34812;49.846;9.610;2023-05-10T04:21:33;12.80;99.90
16327;DHT22;34812;49.846;9.610;2023-05-10T04:22:35;12.80;99.90
16327;DHT22;34812;49.846;9.610;2023-05-10T04:23:37;12.80;99.90
16327;DHT22;34812;49.846;9.610;2023-05-10T04:24:39;12.80;99.90
16327;DHT22;34812;49.846;9.610;2023-05-10T04:25:40;12.80;99.90
16327;DHT22;34812;49.846;9.610;2023-05-10T04:26:42;12.90;99.90
16327;DHT22;34812;49.846;9.610;2023-05-10T04:27:42;12.90;99.90
16327;DHT22;34812;49.846;9.610;2023-05-10T04:28:44;12.90;99.90
16327;DHT22;34812;49.846;9.610;2023-05-10T04:29:45;12.90;99.90
16327;DHT22;34812;49.846;9.610;2023-05-10T04:30:47;12.90;99.90
16327;DHT22;34812;49.846;9.610;2023-05-10T04:31:47;13.00;99.90
16327;DHT22;34812;49.846;9.610;2023-05-10T04:32:49;13.00;99.90
16327;DHT22;34812;49.846;9.610;2023-05-10T04:33:50;13.00;99.90
16327;DHT22;34812;49.846;9.610;2023-05-10T04:34:52;13.00;99.90
16327;DHT22;34812;49.846;9.610;2023-05-10T04:35:53;13.00;99.90
16327;DHT22;34812;49.846;9.610;2023-05-10T04:36:55;13.00;99.90
16327;DHT22;34812;49.846;9.610;2023-05-10T04:37:56;13.00;99.90
16327;DHT22;34812;49.846;9.610;2023-05-10T04:38:59;13.00;99.90
16327;DHT22;34812;49.846;9.610;2023-05-10T04:39:59;13.10;99.90
16327;DHT22;34812;49.846;9.610;2023-05-10T04:41:05;13.10;99.90
16327;DHT22;34812;49.846;9.610;2023-05-10T04:42:06;13.10;99.90
16327;DHT22;34812;49.846;9.610;2023-05-10T04:43:07;13.10;99.90
16327;DHT22;34812;49.846;9.610;2023-05-10T04:44:08;13.10;99.90
16327;DHT22;34812;49.846;9.610;2023-05-10T04:45:10;13.20;99.90
16327;DHT22;34812;49.846;9.610;2023-05-10T04:46:11;13.20;99.90
16327;DHT22;34812;49.846;9.610;2023-05-10T04:47:13;13.20;99.90
16327;DHT22;34812;49.846;9.610;2023-05-10T04:48:13;13.20;99.90
16327;DHT22;34812;49.846;9.610;2023-05-10T04:49:15;13.20;99.90
16327;DHT22;34812;49.846;9.610;2023-05-10T04:50:17;13.30;99.90
16327;DHT22;34812;49.846;9.610;2023-05-10T04:51:18;13.30;99.90
16327;DHT22;34812;49.846;9.610;2023-05-10T04:52:20;13.30;99.90
16327;DHT22;34812;49.846;9.610;2023-05-10T04:53:22;13.30;99.90
16327;DHT22;34812;49.846;9.610;2023-05-10T04:54:24;13.30;99.90
16327;DHT22;34812;49.846;9.610;2023-05-10T04:55:26;13.40;99.90
16327;DHT22;34812;49.846;9.610;2023-05-10T04:56:27;13.40;99.90
16327;DHT22;34812;49.846;9.610;2023-05-10T04:57:29;13.40;99.90
16327;DHT22;34812;49.846;9.610;2023-05-10T04:58:30;13.40;99.90
16327;DHT22;34812;49.846;9.610;2023-05-10T04:59:32;13.40;99.90
16327;DHT22;34812;49.846;9.610;2023-05-10T05:00:34;13.40;99.90
16327;DHT22;34812;49.846;9.610;2023-05-10T05:01:35;13.40;99.90
16327;DHT22;34812;49.846;9.610;2023-05-10T05:02:37;13.40;99.90
16327;DHT22;34812;49.846;9.610;2023-05-10T05:03:38;13.40;99.90
16327;DHT22;34812;49.846;9.610;2023-05-10T05:04:40;13.50;99.90
16327;DHT22;34812;49.846;9.610;2023-05-10T05:05:41;13.50;99.90
16327;DHT22;34812;49.846;9.610;2023-05-10T05:06:42;13.50;99.90
16327;DHT22;34812;49.846;9.610;2023-05-10T05:07:43;13.50;99.90
16327;DHT22;34812;49.846;9.610;2023-05-10T05:08:45;13.50;99.90
16327;DHT22;34812;49.846;9.610;2023-05-10T05:09:47;13.50;99.90
16327;DHT22;34812;49.846;9.610;2023-05-10T05:10:49;13.50;99.90
16327;DHT22;34812;49.846;9.610;2023-05-10T05:11:50;13.50;99.90
16327;DHT22;34812;49.846;9.610;2023-05-10T05:12:52;13.50;99.90
16327;DHT22;34812;49.846;9.610;2023-05-10T05:13:53;13.50;99.90
16327;DHT22;34812;49.846;9.610;2023-05-10T05:14:55;13.50;99.90
16327;DHT22;34812;49.846;9.610;2023-05-10T05:15:56;13.50;99.90
16327;DHT22;34812;49.846;9.610;2023-05-10T05:16:58;13.60;99.90
16327;DHT22;34812;49.846;9.610;2023-05-10T05:17:59;13.60;99.90
16327;DHT22;34812;49.846;9.610;2023-05-10T05:19:01;13.60;99.90
16327;DHT22;34812;49.846;9.610;2023-05-10T05:20:02;13.70;99.90
16327;DHT22;34812;49.846;9.610;2023-05-10T05:21:13;13.70;99.90
16327;DHT22;34812;49.846;9.610;2023-05-10T05:22:15;13.70;99.90
16327;DHT22;34812;49.846;9.610;2023-05-10T05:23:17;13.70;99.90
16327;DHT22;34812;49.846;9.610;2023-05-10T05:24:19;13.70;99.90
16327;DHT22;34812;49.846;9.610;2023-05-10T05:25:22;13.80;99.90
16327;DHT22;34812;49.846;9.610;2023-05-10T05:26:23;13.80;99.90
16327;DHT22;34812;49.846;9.610;2023-05-10T05:27:25;13.80;99.90
16327;DHT22;34812;49.846;9.610;2023-05-10T05:28:28;13.80;99.90
16327;DHT22;34812;49.846;9.610;2023-05-10T05:29:33;13.90;99.90
16327;DHT22;34812;49.846;9.610;2023-05-10T05:30:34;13.90;99.90
16327;DHT22;34812;49.846;9.610;2023-05-10T05:31:36;13.90;99.90
16327;DHT22;34812;49.846;9.610;2023-05-10T05:32:36;14.00;99.90
16327;DHT22;34812;49.846;9.610;2023-05-10T05:33:38;14.00;99.90
16327;DHT22;34812;49.846;9.610;2023-05-10T05:34:39;14.00;99.90
16327;DHT22;34812;49.846;9.610;2023-05-10T05:35:41;14.00;99.90
16327;DHT22;34812;49.846;9.610;2023-05-10T05:36:43;14.10;99.90
16327;DHT22;34812;49.846;9.610;2023-05-10T05:37:44;14.10;99.90
16327;DHT22;34812;49.846;9.610;2023-05-10T05:38:45;14.20;99.90
16327;DHT22;34812;49.846;9.610;2023-05-10T05:39:47;14.20;99.90
16327;DHT22;34812;49.846;9.610;2023-05-10T05:40:49;14.20;99.90
16327;DHT22;34812;49.846;9.610;2023-05-10T05:41:51;14.30;99.90
16327;DHT22;34812;49.846;9.610;2023-05-10T05:42:52;14.30;99.90
16327;DHT22;34812;49.846;9.610;2023-05-10T05:43:54;14.30;99.90
16327;DHT22;34812;49.846;9.610;2023-05-10T05:44:54;14.30;99.90
16327;DHT22;34812;49.846;9.610;2023-05-10T05:45:56;14.30;99.90
16327;DHT22;34812;49.846;9.610;2023-05-10T05:46:58;14.40;99.90
16327;DHT22;34812;49.846;9.610;2023-05-10T05:47:59;14.40;99.90
16327;DHT22;34812;49.846;9.610;2023-05-10T05:49:01;14.40;99.90
16327;DHT22;34812;49.846;9.610;2023-05-10T05:50:02;14.40;99.90
16327;DHT22;34812;49.846;9.610;2023-05-10T05:51:04;14.40;99.90
16327;DHT22;34812;49.846;9.610;2023-05-10T05:52:05;14.40;99.90
16327;DHT22;34812;49.846;9.610;2023-05-10T05:53:07;14.50;99.90
16327;DHT22;34812;49.846;9.610;2023-05-10T05:54:08;14.50;99.90
16327;DHT22;34812;49.846;9.610;2023-05-10T05:55:10;14.50;99.90
16327;DHT22;34812;49.846;9.610;2023-05-10T05:56:12;14.50;99.90
16327;DHT22;34812;49.846;9.610;2023-05-10T05:57:14;14.40;99.90
16327;DHT22;34812;49.846;9.610;2023-05-10T05:58:14;14.50;99.90
16327;DHT22;34812;49.846;9.610;2023-05-10T05:59:16;14.40;99.90
16327;DHT22;34812;49.846;9.610;2023-05-10T06:00:17;14.40;99.90
16327;DHT22;34812;49.846;9.610;2023-05-10T06:01:20;14.30;99.90
16327;DHT22;34812;49.846;9.610;2023-05-10T06:02:20;14.30;99.90
16327;DHT22;34812;49.846;9.610;2023-05-10T06:03:22;14.30;99.90
16327;DHT22;34812;49.846;9.610;2023-05-10T06:04:24;14.30;99.90
16327;DHT22;34812;49.846;9.610;2023-05-10T06:05:25;14.30;99.90
16327;DHT22;34812;49.846;9.610;2023-05-10T06:06:27;14.30;99.90
16327;DHT22;34812;49.846;9.610;2023-05-10T06:07:28;14.20;99.90
16327;DHT22;34812;49.846;9.610;2023-05-10T06:08:30;14.20;99.90
16327;DHT22;34812;49.846;9.610;2023-05-10T06:09:31;14.20;99.90
16327;DHT22;34812;49.846;9.610;2023-05-10T06:10:32;14.20;99.90
16327;DHT22;34812;49.846;9.610;2023-05-10T06:11:35;14.20;99.90
16327;DHT22;34812;49.846;9.610;2023-05-10T06:12:36;14.10;99.90
16327;DHT22;34812;49.846;9.610;2023-05-10T06:13:37;14.20;99.90
16327;DHT22;34812;49.846;9.610;2023-05-10T06:14:39;14.20;99.90
16327;DHT22;34812;49.846;9.610;2023-05-10T06:15:40;14.20;99.90
16327;DHT22;34812;49.846;9.610;2023-05-10T06:16:42;14.20;99.90
16327;DHT22;34812;49.846;9.610;2023-05-10T06:17:43;14.20;99.90
16327;DHT22;34812;49.846;9.610;2023-05-10T06:18:45;14.20;99.90
16327;DHT22;34812;49.846;9.610;2023-05-10T06:19:46;14.30;99.90
16327;DHT22;34812;49.846;9.610;2023-05-10T06:20:47;14.30;99.90
16327;DHT22;34812;49.846;9.610;2023-05-10T06:21:49;14.30;99.90
16327;DHT22;34812;49.846;9.610;2023-05-10T06:22:51;14.30;99.90
16327;DHT22;34812;49.846;9.610;2023-05-10T06:23:52;14.30;99.90
16327;DHT22;34812;49.846;9.610;2023-05-10T06:24:54;14.40;99.90
16327;DHT22;34812;49.846;9.610;2023-05-10T06:25:55;14.40;99.90
16327;DHT22;34812;49.846;9.610;2023-05-10T06:26:58;14.40;99.90
16327;DHT22;34812;49.846;9.610;2023-05-10T06:28:00;14.40;99.90
16327;DHT22;34812;49.846;9.610;2023-05-10T06:29:02;14.40;99.90
16327;DHT22;34812;49.846;9.610;2023-05-10T06:30:04;14.40;99.90
16327;DHT22;34812;49.846;9.610;2023-05-10T06:31:07;14.30;99.90
16327;DHT22;34812;49.846;9.610;2023-05-10T06:32:07;14.30;99.90
16327;DHT22;34812;49.846;9.610;2023-05-10T06:33:09;14.30;99.90
16327;DHT22;34812;49.846;9.610;2023-05-10T06:34:11;14.30;99.90
16327;DHT22;34812;49.846;9.610;2023-05-10T06:35:12;14.30;99.90
16327;DHT22;34812;49.846;9.610;2023-05-10T06:36:15;14.30;99.90
16327;DHT22;34812;49.846;9.610;2023-05-10T06:37:15;14.30;99.90
16327;DHT22;34812;49.846;9.610;2023-05-10T06:38:17;14.30;99.90
16327;DHT22;34812;49.846;9.610;2023-05-10T06:39:18;14.40;99.90
16327;DHT22;34812;49.846;9.610;2023-05-10T06:40:20;14.40;99.90
16327;DHT22;34812;49.846;9.610;2023-05-10T06:41:22;14.50;99.90